Time;durP1;ratioP1;P1;durP2;ratioP2;P2;SDS_P1;SDS_P2;PMS_P1;PMS_P2;Temp;Humidity;BMP_temperature;BMP_pressure;BME280_temperature;BME280_humidity;BME280_pressure;Samples;Min_cycle;Max_cycle;Signal;HPM_P1;HPM_P2
2022/06/08 00:00:01;;;;;;;3.45;3.15;;;;;;;12.59;95.83008;95185.69;;;;
2022/06/08 00:01:09;;;;;;;3.45;3.15;;;;;;;12.59;95.83008;95185.69;;;;
2022/06/08 00:02:12;;;;;;;3.45;3.15;;;;;;;12.59;95.83008;95185.69;;;;
2022/06/08 00:03:14;;;;;;;3.299999;3;;;;;;;12.62;96.13672;95175.95;;;;
2022/06/08 00:04:22;;;;;;;3.299999;3;;;;;;;12.62;96.13672;95175.95;;;;
2022/06/08 00:05:22;;;;;;;3.299999;3;;;;;;;12.62;96.13672;95175.95;;;;
2022/06/08 00:06:23;;;;;;;3.299999;3;;;;;;;12.62;96.13672;95175.95;;;;
2022/06/08 00:07:24;;;;;;;3.299999;3;;;;;;;12.62;96.13672;95175.95;;;;
2022/06/08 00:08:25;;;;;;;3.299999;3;;;;;;;12.62;96.13672;95175.95;;;;
2022/06/08 00:09:26;;;;;;;3.299999;3;;;;;;;12.62;96.13672;95175.95;;;;
2022/06/08 00:10:27;;;;;;;3.299999;3;;;;;;;12.62;96.13672;95175.95;;;;
2022/06/08 00:11:28;;;;;;;3.299999;3;;;;;;;12.62;96.13672;95175.95;;;;
2022/06/08 00:12:28;;;;;;;3.299999;3;;;;;;;12.62;96.13672;95175.95;;;;
2022/06/08 00:13:29;;;;;;;3.6;3.3;;;;;;;12.64;96.23828;95172.97;;;;
2022/06/08 00:14:30;;;;;;;3.6;3.3;;;;;;;12.64;96.23828;95172.97;;;;
2022/06/08 00:15:30;;;;;;;3.6;3.3;;;;;;;12.64;96.23828;95172.97;;;;
2022/06/08 00:16:31;;;;;;;3.6;3.3;;;;;;;12.64;96.23828;95172.97;;;;
2022/06/08 00:17:32;;;;;;;3.6;3.3;;;;;;;12.64;96.23828;95172.97;;;;
2022/06/08 00:18:32;;;;;;;3.6;3.3;;;;;;;12.64;96.23828;95172.97;;;;
2022/06/08 00:19:33;;;;;;;3.6;3.3;;;;;;;12.64;96.23828;95172.97;;;;
2022/06/08 00:20:34;;;;;;;3.6;3.3;;;;;;;12.64;96.23828;95172.97;;;;
2022/06/08 00:21:34;;;;;;;3.6;3.3;;;;;;;12.64;96.23828;95172.97;;;;
2022/06/08 00:22:35;;;;;;;3.6;3.3;;;;;;;12.64;96.23828;95172.97;;;;
2022/06/08 00:23:36;;;;;;;3.6;3.3;;;;;;;12.64;96.23828;95172.97;;;;
2022/06/08 00:24:37;;;;;;;3.45;3.15;;;;;;;12.79;96.5498;95168.03;;;;
2022/06/08 00:25:38;;;;;;;3.45;3.15;;;;;;;12.79;96.5498;95168.03;;;;
2022/06/08 00:26:38;;;;;;;3.45;3.15;;;;;;;12.79;96.5498;95168.03;;;;
2022/06/08 00:27:39;;;;;;;3.45;3.15;;;;;;;12.79;96.5498;95168.03;;;;
2022/06/08 00:28:40;;;;;;;3.45;3.15;;;;;;;12.79;96.5498;95168.03;;;;
2022/06/08 00:29:40;;;;;;;3.45;3.15;;;;;;;12.79;96.5498;95168.03;;;;
2022/06/08 00:30:41;;;;;;;3.45;3.15;;;;;;;12.79;96.5498;95168.03;;;;
2022/06/08 00:31:42;;;;;;;3.45;3.15;;;;;;;12.79;96.5498;95168.03;;;;
2022/06/08 00:32:43;;;;;;;3.45;3.15;;;;;;;12.79;96.5498;95168.03;;;;
2022/06/08 00:33:44;;;;;;;3.45;3.15;;;;;;;12.79;96.5498;95168.03;;;;
2022/06/08 00:34:44;;;;;;;3.45;3.15;;;;;;;12.79;96.5498;95168.03;;;;
2022/06/08 00:35:45;;;;;;;3.3;2.95;;;;;;;12.86;96.5127;95158.13;;;;
2022/06/08 00:36:45;;;;;;;3.3;2.95;;;;;;;12.86;96.5127;95158.13;;;;
2022/06/08 00:37:46;;;;;;;3.3;2.95;;;;;;;12.86;96.5127;95158.13;;;;
2022/06/08 00:38:46;;;;;;;3.3;2.95;;;;;;;12.86;96.5127;95158.13;;;;
2022/06/08 00:39:47;;;;;;;3.3;2.95;;;;;;;12.86;96.5127;95158.13;;;;
2022/06/08 00:40:47;;;;;;;3.3;2.95;;;;;;;12.86;96.5127;95158.13;;;;
2022/06/08 00:42:01;;;;;;;3.3;2.95;;;;;;;12.86;96.5127;95158.13;;;;
2022/06/08 00:43:05;;;;;;;3.3;2.95;;;;;;;12.86;96.5127;95158.13;;;;
2022/06/08 00:44:06;;;;;;;3.3;2.95;;;;;;;12.86;96.5127;95158.13;;;;
2022/06/08 00:45:12;;;;;;;3.3;2.95;;;;;;;12.86;96.5127;95158.13;;;;
2022/06/08 00:46:17;;;;;;;4.199999;3.35;;;;;;;12.98;96.64453;95153.77;;;;
2022/06/08 00:47:18;;;;;;;4.199999;3.35;;;;;;;12.98;96.64453;95153.77;;;;
2022/06/08 00:48:21;;;;;;;4.199999;3.35;;;;;;;12.98;96.64453;95153.77;;;;
2022/06/08 00:49:26;;;;;;;4.199999;3.35;;;;;;;12.98;96.64453;95153.77;;;;
2022/06/08 00:50:30;;;;;;;4.199999;3.35;;;;;;;12.98;96.64453;95153.77;;;;
2022/06/08 00:51:38;;;;;;;4.199999;3.35;;;;;;;12.98;96.64453;95153.77;;;;
2022/06/08 00:52:38;;;;;;;4.199999;3.35;;;;;;;12.98;96.64453;95153.77;;;;
2022/06/08 00:53:40;;;;;;;4.199999;3.35;;;;;;;12.98;96.64453;95153.77;;;;
2022/06/08 00:54:45;;;;;;;4.199999;3.35;;;;;;;12.98;96.64453;95153.77;;;;
2022/06/08 00:55:49;;;;;;;4.199999;3.35;;;;;;;12.98;96.64453;95153.77;;;;
2022/06/08 00:56:50;;;;;;;3.7;2.95;;;;;;;13.06;96.63965;95153.86;;;;
2022/06/08 00:57:54;;;;;;;3.7;2.95;;;;;;;13.06;96.63965;95153.86;;;;
2022/06/08 00:58:58;;;;;;;3.7;2.95;;;;;;;13.06;96.63965;95153.86;;;;
2022/06/08 00:59:59;;;;;;;3.7;2.95;;;;;;;13.06;96.63965;95153.86;;;;
2022/06/08 01:01:04;;;;;;;3.7;2.95;;;;;;;13.06;96.63965;95153.86;;;;
2022/06/08 01:02:04;;;;;;;3.7;2.95;;;;;;;13.06;96.63965;95153.86;;;;
2022/06/08 01:03:05;;;;;;;3.7;2.95;;;;;;;13.06;96.63965;95153.86;;;;
2022/06/08 01:04:07;;;;;;;3.7;2.95;;;;;;;13.06;96.63965;95153.86;;;;
2022/06/08 01:05:11;;;;;;;3.7;2.95;;;;;;;13.06;96.63965;95153.86;;;;
2022/06/08 01:06:19;;;;;;;3.7;2.95;;;;;;;13.06;96.63965;95153.86;;;;
2022/06/08 01:07:22;;;;;;;3.149999;2.900001;;;;;;;13.22;96.82715;95146.94;;;;
2022/06/08 01:08:22;;;;;;;3.149999;2.900001;;;;;;;13.22;96.82715;95146.94;;;;
2022/06/08 01:09:29;;;;;;;3.149999;2.900001;;;;;;;13.22;96.82715;95146.94;;;;
2022/06/08 01:10:32;;;;;;;3.149999;2.900001;;;;;;;13.22;96.82715;95146.94;;;;
2022/06/08 01:11:43;;;;;;;3.149999;2.900001;;;;;;;13.22;96.82715;95146.94;;;;
2022/06/08 01:12:46;;;;;;;3.149999;2.900001;;;;;;;13.22;96.82715;95146.94;;;;
2022/06/08 01:13:47;;;;;;;3.149999;2.900001;;;;;;;13.22;96.82715;95146.94;;;;
2022/06/08 01:14:48;;;;;;;3.149999;2.900001;;;;;;;13.22;96.82715;95146.94;;;;
2022/06/08 01:15:49;;;;;;;3.149999;2.900001;;;;;;;13.22;96.82715;95146.94;;;;
2022/06/08 01:16:50;;;;;;;3.149999;2.900001;;;;;;;13.22;96.82715;95146.94;;;;
2022/06/08 01:17:56;;;;;;;3.25;2.95;;;;;;;13.29;96.64844;95138.32;;;;
2022/06/08 01:18:57;;;;;;;3.25;2.95;;;;;;;13.29;96.64844;95138.32;;;;
2022/06/08 01:19:57;;;;;;;3.25;2.95;;;;;;;13.29;96.64844;95138.32;;;;
2022/06/08 01:20:58;;;;;;;3.25;2.95;;;;;;;13.29;96.64844;95138.32;;;;
2022/06/08 01:22:44;;;;;;;3.25;2.95;;;;;;;13.29;96.64844;95138.32;;;;
2022/06/08 01:23:44;;;;;;;3.25;2.95;;;;;;;13.29;96.64844;95138.32;;;;
2022/06/08 01:24:46;;;;;;;3.25;2.95;;;;;;;13.29;96.64844;95138.32;;;;
2022/06/08 01:25:50;;;;;;;3.25;2.95;;;;;;;13.29;96.64844;95138.32;;;;
2022/06/08 01:27:05;;;;;;;3.25;2.95;;;;;;;13.29;96.64844;95138.32;;;;
2022/06/08 01:28:19;;;;;;;3.1;2.9;;;;;;;13.4;96.74805;95138.95;;;;
2022/06/08 01:29:31;;;;;;;3.1;2.9;;;;;;;13.4;96.74805;95138.95;;;;
2022/06/08 01:30:39;;;;;;;3.1;2.9;;;;;;;13.4;96.74805;95138.95;;;;
2022/06/08 01:31:49;;;;;;;3.1;2.9;;;;;;;13.4;96.74805;95138.95;;;;
2022/06/08 01:33:02;;;;;;;3.1;2.9;;;;;;;13.4;96.74805;95138.95;;;;
2022/06/08 01:35:14;;;;;;;3.1;2.9;;;;;;;13.4;96.74805;95138.95;;;;
2022/06/08 01:36:27;;;;;;;3.1;2.9;;;;;;;13.4;96.74805;95138.95;;;;
2022/06/08 01:37:58;;;;;;;3.1;2.9;;;;;;;13.4;96.74805;95138.95;;;;
2022/06/08 01:39:10;;;;;;;2.95;2.75;;;;;;;13.46;96.69531;95120.76;;;;
2022/06/08 01:40:21;;;;;;;2.95;2.75;;;;;;;13.46;96.69531;95120.76;;;;
2022/06/08 01:41:38;;;;;;;2.95;2.75;;;;;;;13.46;96.69531;95120.76;;;;
2022/06/08 01:42:56;;;;;;;2.95;2.75;;;;;;;13.46;96.69531;95120.76;;;;
2022/06/08 01:44:11;;;;;;;2.95;2.75;;;;;;;13.46;96.69531;95120.76;;;;
2022/06/08 01:45:28;;;;;;;2.95;2.75;;;;;;;13.46;96.69531;95120.76;;;;
2022/06/08 01:46:44;;;;;;;2.95;2.75;;;;;;;13.46;96.69531;95120.76;;;;
2022/06/08 01:47:53;;;;;;;2.95;2.75;;;;;;;13.46;96.69531;95120.76;;;;
2022/06/08 01:49:12;;;;;;;2.95;2.75;;;;;;;13.46;96.69531;95120.76;;;;
2022/06/08 01:50:22;;;;;;;3.15;2.6;;;;;;;13.57;96.81543;95100.03;;;;
2022/06/08 01:51:30;;;;;;;3.15;2.6;;;;;;;13.57;96.81543;95100.03;;;;
2022/06/08 01:52:45;;;;;;;3.15;2.6;;;;;;;13.57;96.81543;95100.03;;;;
2022/06/08 01:53:59;;;;;;;3.15;2.6;;;;;;;13.57;96.81543;95100.03;;;;
2022/06/08 01:55:09;;;;;;;3.15;2.6;;;;;;;13.57;96.81543;95100.03;;;;
2022/06/08 01:56:16;;;;;;;3.15;2.6;;;;;;;13.57;96.81543;95100.03;;;;
2022/06/08 01:57:24;;;;;;;3.15;2.6;;;;;;;13.57;96.81543;95100.03;;;;
2022/06/08 01:58:40;;;;;;;3.15;2.6;;;;;;;13.57;96.81543;95100.03;;;;
2022/06/08 01:59:48;;;;;;;3.15;2.6;;;;;;;13.57;96.81543;95100.03;;;;
2022/06/08 02:00:58;;;;;;;3;2.7;;;;;;;13.57;96.64453;95083.15;;;;
2022/06/08 02:02:06;;;;;;;3;2.7;;;;;;;13.57;96.64453;95083.15;;;;
2022/06/08 02:03:15;;;;;;;3;2.7;;;;;;;13.57;96.64453;95083.15;;;;
2022/06/08 02:04:25;;;;;;;3;2.7;;;;;;;13.57;96.64453;95083.15;;;;
2022/06/08 02:05:33;;;;;;;3;2.7;;;;;;;13.57;96.64453;95083.15;;;;
2022/06/08 02:06:42;;;;;;;3;2.7;;;;;;;13.57;96.64453;95083.15;;;;
2022/06/08 02:07:48;;;;;;;3;2.7;;;;;;;13.57;96.64453;95083.15;;;;
2022/06/08 02:08:56;;;;;;;3;2.7;;;;;;;13.57;96.64453;95083.15;;;;
2022/06/08 02:10:04;;;;;;;3;2.7;;;;;;;13.57;96.64453;95083.15;;;;
2022/06/08 02:11:14;;;;;;;3.1;2.55;;;;;;;13.58;96.71191;95075.08;;;;
2022/06/08 02:12:21;;;;;;;3.1;2.55;;;;;;;13.58;96.71191;95075.08;;;;
2022/06/08 02:13:22;;;;;;;3.1;2.55;;;;;;;13.58;96.71191;95075.08;;;;
2022/06/08 02:14:27;;;;;;;3.1;2.55;;;;;;;13.58;96.71191;95075.08;;;;
2022/06/08 02:15:35;;;;;;;3.1;2.55;;;;;;;13.58;96.71191;95075.08;;;;
2022/06/08 02:16:39;;;;;;;3.1;2.55;;;;;;;13.58;96.71191;95075.08;;;;
2022/06/08 02:17:44;;;;;;;3.1;2.55;;;;;;;13.58;96.71191;95075.08;;;;
2022/06/08 02:18:49;;;;;;;3.1;2.55;;;;;;;13.58;96.71191;95075.08;;;;
2022/06/08 02:19:54;;;;;;;3.1;2.55;;;;;;;13.58;96.71191;95075.08;;;;
2022/06/08 02:21:01;;;;;;;3.1;2.55;;;;;;;13.58;96.71191;95075.08;;;;
2022/06/08 02:22:09;;;;;;;3.05;2.35;;;;;;;13.45;96.55371;95070.03;;;;
2022/06/08 02:23:16;;;;;;;3.05;2.35;;;;;;;13.45;96.55371;95070.03;;;;
2022/06/08 02:24:21;;;;;;;3.05;2.35;;;;;;;13.45;96.55371;95070.03;;;;
2022/06/08 02:25:27;;;;;;;3.05;2.35;;;;;;;13.45;96.55371;95070.03;;;;
2022/06/08 02:26:34;;;;;;;3.05;2.35;;;;;;;13.45;96.55371;95070.03;;;;
2022/06/08 02:27:39;;;;;;;3.05;2.35;;;;;;;13.45;96.55371;95070.03;;;;
2022/06/08 02:28:45;;;;;;;3.05;2.35;;;;;;;13.45;96.55371;95070.03;;;;
2022/06/08 02:29:50;;;;;;;3.05;2.35;;;;;;;13.45;96.55371;95070.03;;;;
2022/06/08 02:30:55;;;;;;;3.05;2.35;;;;;;;13.45;96.55371;95070.03;;;;
2022/06/08 02:34:27;;;;;;;3.05;2.35;;;;;;;13.45;96.55371;95070.03;;;;
2022/06/08 02:35:33;;;;;;;2.4;2.2;;;;;;;13.27;96.36426;95067.02;;;;
2022/06/08 02:36:38;;;;;;;2.4;2.2;;;;;;;13.27;96.36426;95067.02;;;;
2022/06/08 02:37:45;;;;;;;2.4;2.2;;;;;;;13.27;96.36426;95067.02;;;;
2022/06/08 02:38:50;;;;;;;2.4;2.2;;;;;;;13.27;96.36426;95067.02;;;;
2022/06/08 02:39:55;;;;;;;2.4;2.2;;;;;;;13.27;96.36426;95067.02;;;;
2022/06/08 02:41:00;;;;;;;2.4;2.2;;;;;;;13.27;96.36426;95067.02;;;;
2022/06/08 02:42:04;;;;;;;2.4;2.2;;;;;;;13.27;96.36426;95067.02;;;;
2022/06/08 02:43:10;;;;;;;2.55;2.35;;;;;;;13.01;96.2959;95078.11;;;;
2022/06/08 02:44:16;;;;;;;2.55;2.35;;;;;;;13.01;96.2959;95078.11;;;;
2022/06/08 02:45:21;;;;;;;2.55;2.35;;;;;;;13.01;96.2959;95078.11;;;;
2022/06/08 02:46:27;;;;;;;2.55;2.35;;;;;;;13.01;96.2959;95078.11;;;;
2022/06/08 02:47:37;;;;;;;2.55;2.35;;;;;;;13.01;96.2959;95078.11;;;;
2022/06/08 02:48:40;;;;;;;2.55;2.35;;;;;;;13.01;96.2959;95078.11;;;;
2022/06/08 02:49:41;;;;;;;2.55;2.35;;;;;;;13.01;96.2959;95078.11;;;;
2022/06/08 02:50:42;;;;;;;2.55;2.35;;;;;;;13.01;96.2959;95078.11;;;;
2022/06/08 02:51:52;;;;;;;2.55;2.35;;;;;;;13.01;96.2959;95078.11;;;;
2022/06/08 02:53:00;;;;;;;2.55;2.35;;;;;;;13.01;96.2959;95078.11;;;;
2022/06/08 02:54:08;;;;;;;2.6;2.4;;;;;;;12.96;96.56543;95070.82;;;;
2022/06/08 02:55:14;;;;;;;2.6;2.4;;;;;;;12.96;96.56543;95070.82;;;;
2022/06/08 02:56:20;;;;;;;2.6;2.4;;;;;;;12.96;96.56543;95070.82;;;;
2022/06/08 02:57:31;;;;;;;2.6;2.4;;;;;;;12.96;96.56543;95070.82;;;;
2022/06/08 02:58:39;;;;;;;2.6;2.4;;;;;;;12.96;96.56543;95070.82;;;;
2022/06/08 02:59:45;;;;;;;2.6;2.4;;;;;;;12.96;96.56543;95070.82;;;;
2022/06/08 03:00:56;;;;;;;2.6;2.4;;;;;;;12.96;96.56543;95070.82;;;;
2022/06/08 03:02:00;;;;;;;2.6;2.4;;;;;;;12.96;96.56543;95070.82;;;;
2022/06/08 03:03:08;;;;;;;2.6;2.4;;;;;;;12.96;96.56543;95070.82;;;;
2022/06/08 03:04:14;;;;;;;2.8;2.6;;;;;;;12.78;96.25781;95067.88;;;;
2022/06/08 03:05:20;;;;;;;2.8;2.6;;;;;;;12.78;96.25781;95067.88;;;;
2022/06/08 03:06:27;;;;;;;2.8;2.6;;;;;;;12.78;96.25781;95067.88;;;;
2022/06/08 03:07:36;;;;;;;2.8;2.6;;;;;;;12.78;96.25781;95067.88;;;;
2022/06/08 03:08:42;;;;;;;2.8;2.6;;;;;;;12.78;96.25781;95067.88;;;;
2022/06/08 03:09:48;;;;;;;2.8;2.6;;;;;;;12.78;96.25781;95067.88;;;;
2022/06/08 03:10:51;;;;;;;2.8;2.6;;;;;;;12.78;96.25781;95067.88;;;;
2022/06/08 03:11:53;;;;;;;2.8;2.6;;;;;;;12.78;96.25781;95067.88;;;;
2022/06/08 03:12:57;;;;;;;2.8;2.6;;;;;;;12.78;96.25781;95067.88;;;;
2022/06/08 03:14:05;;;;;;;2.8;2.6;;;;;;;12.78;96.25781;95067.88;;;;
2022/06/08 03:15:10;;;;;;;3.05;2.6;;;;;;;12.7;96.54199;95072.19;;;;
2022/06/08 03:16:15;;;;;;;3.05;2.6;;;;;;;12.7;96.54199;95072.19;;;;
2022/06/08 03:17:26;;;;;;;3.05;2.6;;;;;;;12.7;96.54199;95072.19;;;;
2022/06/08 03:18:31;;;;;;;3.05;2.6;;;;;;;12.7;96.54199;95072.19;;;;
2022/06/08 03:19:32;;;;;;;3.05;2.6;;;;;;;12.7;96.54199;95072.19;;;;
2022/06/08 03:20:35;;;;;;;3.05;2.6;;;;;;;12.7;96.54199;95072.19;;;;
2022/06/08 03:21:36;;;;;;;3.05;2.6;;;;;;;12.7;96.54199;95072.19;;;;
2022/06/08 03:22:38;;;;;;;3.05;2.6;;;;;;;12.7;96.54199;95072.19;;;;
2022/06/08 03:23:38;;;;;;;3.05;2.6;;;;;;;12.7;96.54199;95072.19;;;;
2022/06/08 03:24:39;;;;;;;3.05;2.6;;;;;;;12.7;96.54199;95072.19;;;;
2022/06/08 03:25:39;;;;;;;3;2.7;;;;;;;12.64;96.57031;95069.65;;;;
2022/06/08 03:26:40;;;;;;;3;2.7;;;;;;;12.64;96.57031;95069.65;;;;
2022/06/08 03:27:44;;;;;;;3;2.7;;;;;;;12.64;96.57031;95069.65;;;;
2022/06/08 03:28:46;;;;;;;3;2.7;;;;;;;12.64;96.57031;95069.65;;;;
2022/06/08 03:29:47;;;;;;;3;2.7;;;;;;;12.64;96.57031;95069.65;;;;
2022/06/08 03:30:48;;;;;;;3;2.7;;;;;;;12.64;96.57031;95069.65;;;;
2022/06/08 03:31:49;;;;;;;3;2.7;;;;;;;12.64;96.57031;95069.65;;;;
2022/06/08 03:32:50;;;;;;;3;2.7;;;;;;;12.64;96.57031;95069.65;;;;
2022/06/08 03:33:50;;;;;;;3;2.7;;;;;;;12.64;96.57031;95069.65;;;;
2022/06/08 03:34:51;;;;;;;3;2.7;;;;;;;12.64;96.57031;95069.65;;;;
2022/06/08 03:35:51;;;;;;;3;2.7;;;;;;;12.64;96.57031;95069.65;;;;
2022/06/08 03:36:52;;;;;;;2.55;2.35;;;;;;;12.67;96.67383;95072.25;;;;
2022/06/08 03:37:53;;;;;;;2.55;2.35;;;;;;;12.67;96.67383;95072.25;;;;
2022/06/08 03:38:53;;;;;;;2.55;2.35;;;;;;;12.67;96.67383;95072.25;;;;
2022/06/08 03:39:54;;;;;;;2.55;2.35;;;;;;;12.67;96.67383;95072.25;;;;
2022/06/08 03:40:54;;;;;;;2.55;2.35;;;;;;;12.67;96.67383;95072.25;;;;
2022/06/08 03:41:55;;;;;;;2.55;2.35;;;;;;;12.67;96.67383;95072.25;;;;
2022/06/08 03:42:55;;;;;;;2.55;2.35;;;;;;;12.67;96.67383;95072.25;;;;
2022/06/08 03:43:56;;;;;;;2.55;2.35;;;;;;;12.67;96.67383;95072.25;;;;
2022/06/08 03:44:56;;;;;;;2.55;2.35;;;;;;;12.67;96.67383;95072.25;;;;
2022/06/08 03:45:57;;;;;;;2.55;2.35;;;;;;;12.67;96.67383;95072.25;;;;
2022/06/08 03:47:02;;;;;;;3.8;2.6;;;;;;;12.55;96.38086;95066.02;;;;
2022/06/08 03:48:07;;;;;;;3.8;2.6;;;;;;;12.55;96.38086;95066.02;;;;
2022/06/08 03:49:08;;;;;;;3.8;2.6;;;;;;;12.55;96.38086;95066.02;;;;
2022/06/08 03:50:11;;;;;;;3.8;2.6;;;;;;;12.55;96.38086;95066.02;;;;
2022/06/08 03:51:15;;;;;;;3.8;2.6;;;;;;;12.55;96.38086;95066.02;;;;
2022/06/08 03:52:17;;;;;;;3.8;2.6;;;;;;;12.55;96.38086;95066.02;;;;
2022/06/08 03:53:22;;;;;;;3.8;2.6;;;;;;;12.55;96.38086;95066.02;;;;
2022/06/08 03:54:29;;;;;;;3.8;2.6;;;;;;;12.55;96.38086;95066.02;;;;
2022/06/08 03:55:36;;;;;;;3.8;2.6;;;;;;;12.55;96.38086;95066.02;;;;
2022/06/08 03:56:37;;;;;;;3.8;2.6;;;;;;;12.55;96.38086;95066.02;;;;
2022/06/08 03:57:41;;;;;;;3.45;2.5;;;;;;;12.46;96.47754;95072.71;;;;
2022/06/08 03:58:42;;;;;;;3.45;2.5;;;;;;;12.46;96.47754;95072.71;;;;
2022/06/08 03:59:43;;;;;;;3.45;2.5;;;;;;;12.46;96.47754;95072.71;;;;
2022/06/08 04:00:46;;;;;;;3.45;2.5;;;;;;;12.46;96.47754;95072.71;;;;
2022/06/08 04:01:48;;;;;;;3.45;2.5;;;;;;;12.46;96.47754;95072.71;;;;
2022/06/08 04:02:49;;;;;;;3.45;2.5;;;;;;;12.46;96.47754;95072.71;;;;
2022/06/08 04:03:52;;;;;;;3.45;2.5;;;;;;;12.46;96.47754;95072.71;;;;
2022/06/08 04:04:53;;;;;;;3.45;2.5;;;;;;;12.46;96.47754;95072.71;;;;
2022/06/08 04:05:54;;;;;;;3.45;2.5;;;;;;;12.46;96.47754;95072.71;;;;
2022/06/08 04:06:54;;;;;;;3.45;2.5;;;;;;;12.46;96.47754;95072.71;;;;
2022/06/08 04:07:54;;;;;;;3.45;2.5;;;;;;;12.46;96.47754;95072.71;;;;
2022/06/08 04:08:55;;;;;;;3.3;2.4;;;;;;;12.38;96.42969;95075.66;;;;
2022/06/08 04:09:56;;;;;;;3.3;2.4;;;;;;;12.38;96.42969;95075.66;;;;
2022/06/08 04:10:56;;;;;;;3.3;2.4;;;;;;;12.38;96.42969;95075.66;;;;
2022/06/08 04:11:57;;;;;;;3.3;2.4;;;;;;;12.38;96.42969;95075.66;;;;
2022/06/08 04:12:58;;;;;;;3.3;2.4;;;;;;;12.38;96.42969;95075.66;;;;
2022/06/08 04:13:59;;;;;;;3.3;2.4;;;;;;;12.38;96.42969;95075.66;;;;
2022/06/08 04:15:00;;;;;;;3.3;2.4;;;;;;;12.38;96.42969;95075.66;;;;
2022/06/08 04:16:02;;;;;;;3.3;2.4;;;;;;;12.38;96.42969;95075.66;;;;
2022/06/08 04:17:03;;;;;;;3.3;2.4;;;;;;;12.38;96.42969;95075.66;;;;
2022/06/08 04:18:04;;;;;;;3.3;2.4;;;;;;;12.38;96.42969;95075.66;;;;
2022/06/08 04:19:05;;;;;;;3.15;2.6;;;;;;;12.48;96.70801;95062.66;;;;
2022/06/08 04:20:05;;;;;;;3.15;2.6;;;;;;;12.48;96.70801;95062.66;;;;
2022/06/08 04:21:08;;;;;;;3.15;2.6;;;;;;;12.48;96.70801;95062.66;;;;
2022/06/08 04:22:10;;;;;;;3.15;2.6;;;;;;;12.48;96.70801;95062.66;;;;
2022/06/08 04:23:11;;;;;;;3.15;2.6;;;;;;;12.48;96.70801;95062.66;;;;
2022/06/08 04:24:12;;;;;;;3.15;2.6;;;;;;;12.48;96.70801;95062.66;;;;
2022/06/08 04:25:16;;;;;;;3.15;2.6;;;;;;;12.48;96.70801;95062.66;;;;
2022/06/08 04:26:16;;;;;;;3.15;2.6;;;;;;;12.48;96.70801;95062.66;;;;
2022/06/08 04:27:18;;;;;;;3.15;2.6;;;;;;;12.48;96.70801;95062.66;;;;
2022/06/08 04:28:18;;;;;;;3.15;2.6;;;;;;;12.48;96.70801;95062.66;;;;
2022/06/08 04:29:20;;;;;;;3.15;2.6;;;;;;;12.48;96.70801;95062.66;;;;
2022/06/08 04:30:21;;;;;;;2.85;2.6;;;;;;;12.51;96.70313;95072.42;;;;
2022/06/08 04:31:22;;;;;;;2.85;2.6;;;;;;;12.51;96.70313;95072.42;;;;
2022/06/08 04:32:23;;;;;;;2.85;2.6;;;;;;;12.51;96.70313;95072.42;;;;
2022/06/08 04:33:23;;;;;;;2.85;2.6;;;;;;;12.51;96.70313;95072.42;;;;
2022/06/08 04:34:24;;;;;;;2.85;2.6;;;;;;;12.51;96.70313;95072.42;;;;
2022/06/08 04:35:26;;;;;;;2.85;2.6;;;;;;;12.51;96.70313;95072.42;;;;
2022/06/08 04:36:27;;;;;;;2.85;2.6;;;;;;;12.51;96.70313;95072.42;;;;
2022/06/08 04:37:28;;;;;;;2.85;2.6;;;;;;;12.51;96.70313;95072.42;;;;
2022/06/08 04:38:29;;;;;;;2.85;2.6;;;;;;;12.51;96.70313;95072.42;;;;
2022/06/08 04:39:29;;;;;;;2.85;2.6;;;;;;;12.51;96.70313;95072.42;;;;
2022/06/08 04:40:30;;;;;;;2.65;2.3;;;;;;;12.74;96.96875;95058.78;;;;
2022/06/08 04:41:32;;;;;;;2.65;2.3;;;;;;;12.74;96.96875;95058.78;;;;
2022/06/08 04:42:33;;;;;;;2.65;2.3;;;;;;;12.74;96.96875;95058.78;;;;
2022/06/08 04:43:33;;;;;;;2.65;2.3;;;;;;;12.74;96.96875;95058.78;;;;
2022/06/08 04:44:34;;;;;;;2.65;2.3;;;;;;;12.74;96.96875;95058.78;;;;
2022/06/08 04:45:35;;;;;;;2.65;2.3;;;;;;;12.74;96.96875;95058.78;;;;
2022/06/08 04:46:36;;;;;;;2.65;2.3;;;;;;;12.74;96.96875;95058.78;;;;
2022/06/08 04:47:37;;;;;;;2.65;2.3;;;;;;;12.74;96.96875;95058.78;;;;
2022/06/08 04:48:38;;;;;;;2.65;2.3;;;;;;;12.74;96.96875;95058.78;;;;
2022/06/08 04:49:39;;;;;;;2.65;2.3;;;;;;;12.74;96.96875;95058.78;;;;
2022/06/08 04:50:39;;;;;;;2.65;2.3;;;;;;;12.74;96.96875;95058.78;;;;
2022/06/08 04:51:40;;;;;;;2.6;2.4;;;;;;;12.9;96.81055;95045.2;;;;
2022/06/08 04:52:40;;;;;;;2.6;2.4;;;;;;;12.9;96.81055;95045.2;;;;
2022/06/08 04:53:41;;;;;;;2.6;2.4;;;;;;;12.9;96.81055;95045.2;;;;
2022/06/08 04:54:43;;;;;;;2.6;2.4;;;;;;;12.9;96.81055;95045.2;;;;
2022/06/08 04:55:44;;;;;;;2.6;2.4;;;;;;;12.9;96.81055;95045.2;;;;
2022/06/08 04:56:45;;;;;;;2.6;2.4;;;;;;;12.9;96.81055;95045.2;;;;
2022/06/08 04:57:45;;;;;;;2.6;2.4;;;;;;;12.9;96.81055;95045.2;;;;
2022/06/08 04:58:46;;;;;;;2.6;2.4;;;;;;;12.9;96.81055;95045.2;;;;
2022/06/08 04:59:46;;;;;;;2.6;2.4;;;;;;;12.9;96.81055;95045.2;;;;
2022/06/08 05:00:47;;;;;;;2.6;2.4;;;;;;;12.9;96.81055;95045.2;;;;
2022/06/08 05:01:47;;;;;;;2.35;2.05;;;;;;;13.24;97.11035;95035.1;;;;
2022/06/08 05:02:48;;;;;;;2.35;2.05;;;;;;;13.24;97.11035;95035.1;;;;
2022/06/08 05:03:50;;;;;;;2.35;2.05;;;;;;;13.24;97.11035;95035.1;;;;
2022/06/08 05:04:50;;;;;;;2.35;2.05;;;;;;;13.24;97.11035;95035.1;;;;
2022/06/08 05:05:51;;;;;;;2.35;2.05;;;;;;;13.24;97.11035;95035.1;;;;
2022/06/08 05:06:51;;;;;;;2.35;2.05;;;;;;;13.24;97.11035;95035.1;;;;
2022/06/08 05:07:52;;;;;;;2.35;2.05;;;;;;;13.24;97.11035;95035.1;;;;
2022/06/08 05:08:53;;;;;;;2.35;2.05;;;;;;;13.24;97.11035;95035.1;;;;
2022/06/08 05:09:54;;;;;;;2.35;2.05;;;;;;;13.24;97.11035;95035.1;;;;
2022/06/08 05:10:54;;;;;;;2.35;2.05;;;;;;;13.24;97.11035;95035.1;;;;
2022/06/08 05:11:55;;;;;;;2.35;2.05;;;;;;;13.24;97.11035;95035.1;;;;
2022/06/08 05:12:56;;;;;;;2.6;2.3;;;;;;;13.61;96.90039;95040.08;;;;
2022/06/08 05:13:57;;;;;;;2.6;2.3;;;;;;;13.61;96.90039;95040.08;;;;
2022/06/08 05:14:58;;;;;;;2.6;2.3;;;;;;;13.61;96.90039;95040.08;;;;
2022/06/08 05:15:59;;;;;;;2.6;2.3;;;;;;;13.61;96.90039;95040.08;;;;
2022/06/08 05:17:00;;;;;;;2.6;2.3;;;;;;;13.61;96.90039;95040.08;;;;
2022/06/08 05:18:01;;;;;;;2.6;2.3;;;;;;;13.61;96.90039;95040.08;;;;
2022/06/08 05:19:02;;;;;;;2.6;2.3;;;;;;;13.61;96.90039;95040.08;;;;
2022/06/08 05:20:03;;;;;;;2.6;2.3;;;;;;;13.61;96.90039;95040.08;;;;
2022/06/08 05:21:06;;;;;;;2.6;2.3;;;;;;;13.61;96.90039;95040.08;;;;
2022/06/08 05:22:07;;;;;;;2.6;2.3;;;;;;;13.61;96.90039;95040.08;;;;
2022/06/08 05:23:07;;;;;;;4.05;2.2;;;;;;;14.02;96.78613;95023.86;;;;
2022/06/08 05:24:11;;;;;;;4.05;2.2;;;;;;;14.02;96.78613;95023.86;;;;
2022/06/08 05:25:12;;;;;;;4.05;2.2;;;;;;;14.02;96.78613;95023.86;;;;
2022/06/08 05:26:15;;;;;;;4.05;2.2;;;;;;;14.02;96.78613;95023.86;;;;
2022/06/08 05:27:17;;;;;;;4.05;2.2;;;;;;;14.02;96.78613;95023.86;;;;
2022/06/08 05:28:18;;;;;;;4.05;2.2;;;;;;;14.02;96.78613;95023.86;;;;
2022/06/08 05:29:18;;;;;;;4.05;2.2;;;;;;;14.02;96.78613;95023.86;;;;
2022/06/08 05:30:19;;;;;;;4.05;2.2;;;;;;;14.02;96.78613;95023.86;;;;
2022/06/08 05:31:20;;;;;;;4.05;2.2;;;;;;;14.02;96.78613;95023.86;;;;
2022/06/08 05:32:22;;;;;;;4.05;2.2;;;;;;;14.02;96.78613;95023.86;;;;
2022/06/08 05:33:22;;;;;;;4.05;2.2;;;;;;;14.02;96.78613;95023.86;;;;
2022/06/08 05:34:24;;;;;;;2.699999;1.8;;;;;;;14.39;96.33984;95021.98;;;;
2022/06/08 05:35:24;;;;;;;2.699999;1.8;;;;;;;14.39;96.33984;95021.98;;;;
2022/06/08 05:36:27;;;;;;;2.699999;1.8;;;;;;;14.39;96.33984;95021.98;;;;
2022/06/08 05:37:27;;;;;;;2.699999;1.8;;;;;;;14.39;96.33984;95021.98;;;;
2022/06/08 05:38:28;;;;;;;2.699999;1.8;;;;;;;14.39;96.33984;95021.98;;;;
2022/06/08 05:39:28;;;;;;;2.699999;1.8;;;;;;;14.39;96.33984;95021.98;;;;
2022/06/08 05:40:31;;;;;;;2.699999;1.8;;;;;;;14.39;96.33984;95021.98;;;;
2022/06/08 05:41:32;;;;;;;2.699999;1.8;;;;;;;14.39;96.33984;95021.98;;;;
2022/06/08 05:42:32;;;;;;;2.699999;1.8;;;;;;;14.39;96.33984;95021.98;;;;
2022/06/08 05:43:33;;;;;;;2.699999;1.8;;;;;;;14.39;96.33984;95021.98;;;;
2022/06/08 05:44:34;;;;;;;2.3;1.9;;;;;;;14.82;96.08691;95020.37;;;;
2022/06/08 05:45:35;;;;;;;2.3;1.9;;;;;;;14.82;96.08691;95020.37;;;;
2022/06/08 05:46:36;;;;;;;2.3;1.9;;;;;;;14.82;96.08691;95020.37;;;;
2022/06/08 05:47:36;;;;;;;2.3;1.9;;;;;;;14.82;96.08691;95020.37;;;;
2022/06/08 05:48:37;;;;;;;2.3;1.9;;;;;;;14.82;96.08691;95020.37;;;;
2022/06/08 05:49:37;;;;;;;2.3;1.9;;;;;;;14.82;96.08691;95020.37;;;;
2022/06/08 05:50:38;;;;;;;2.3;1.9;;;;;;;14.82;96.08691;95020.37;;;;
2022/06/08 05:51:40;;;;;;;2.3;1.9;;;;;;;14.82;96.08691;95020.37;;;;
2022/06/08 05:52:41;;;;;;;2.3;1.9;;;;;;;14.82;96.08691;95020.37;;;;
2022/06/08 05:53:41;;;;;;;2.3;1.9;;;;;;;14.82;96.08691;95020.37;;;;
2022/06/08 05:54:42;;;;;;;2.3;1.9;;;;;;;14.82;96.08691;95020.37;;;;
2022/06/08 05:55:43;;;;;;;2.4;1.7;;;;;;;15.17;95.44043;95013.71;;;;
2022/06/08 05:56:45;;;;;;;2.4;1.7;;;;;;;15.17;95.44043;95013.71;;;;
2022/06/08 05:57:45;;;;;;;2.4;1.7;;;;;;;15.17;95.44043;95013.71;;;;
2022/06/08 05:58:46;;;;;;;2.4;1.7;;;;;;;15.17;95.44043;95013.71;;;;
2022/06/08 05:59:46;;;;;;;2.4;1.7;;;;;;;15.17;95.44043;95013.71;;;;
2022/06/08 06:00:47;;;;;;;2.4;1.7;;;;;;;15.17;95.44043;95013.71;;;;
2022/06/08 06:01:48;;;;;;;2.4;1.7;;;;;;;15.17;95.44043;95013.71;;;;
2022/06/08 06:02:48;;;;;;;2.4;1.7;;;;;;;15.17;95.44043;95013.71;;;;
2022/06/08 06:03:49;;;;;;;2.4;1.7;;;;;;;15.17;95.44043;95013.71;;;;
2022/06/08 06:04:51;;;;;;;2.4;1.7;;;;;;;15.17;95.44043;95013.71;;;;
2022/06/08 06:05:51;;;;;;;2.4;1.7;;;;;;;15.17;95.44043;95013.71;;;;
2022/06/08 06:06:52;;;;;;;2.4;1.7;;;;;;;15.17;95.44043;95013.71;;;;